»·PEaware :: WJA520 KGJT-KASE

WJA520 :: KGJT-KASE

FLIGHT INFORMATION

Flight Status: Arrived
Operator:
Westjet Airlines
More flights by this operator :: More flights under this callsign
Pilot: Alex C. (14758)
Aircraft: BOMBARDIER BD-100 CHALLENGER 300
(CL30)
More flights by this aircraft type
Origin: KGJT Walker
United States
Destination: KASE Aspen-Pitkin Co/Sardy
United States
More flights between these airports :: More routes between these airports
Route: +GRAND1 PACES V134 DBL
File this flight plan on PilotEdge
Remarks: / / L
Altitude:
(Current/Filed)
23,000ft
Speed:
(Current/Filed)
400kts
Departed: 21-Dec-17 06:28 PM
Arrived: 21-Dec-17 07:10 PM
Distance/Time
Traveled:
78nm/0:42
Distance/Time
To Go:
Arrived

Flight Plot

Page will automatically refresh every two minutes.

Flight plan parsing failed; only flown route is shown


Map Options




Map Legend


Flown Route
Filed Route
Departure Airport
Arrival Airport
Navaid (VOR, NDB)
Fix

Horizontal Profiles

Position Reports

Time Latitude Longitude Heading Altitude Ground
Speed
21-Dec-17 18:03 39.120417 -108.522420 303 4863ft 0kts
21-Dec-17 18:04 39.120417 -108.522420 303 4863ft 0kts
21-Dec-17 18:05 39.120417 -108.522420 303 4863ft 0kts
21-Dec-17 18:06 39.120417 -108.522420 303 4863ft 0kts
21-Dec-17 18:07 39.120417 -108.522420 303 4863ft 0kts
21-Dec-17 18:08 39.120417 -108.522420 303 4863ft 0kts
21-Dec-17 18:09 39.120417 -108.522420 303 4863ft 0kts
21-Dec-17 18:10 39.120417 -108.522420 303 4863ft 0kts
21-Dec-17 18:11 39.120417 -108.522420 303 4863ft 0kts
21-Dec-17 18:12 39.120417 -108.522420 303 4863ft 0kts
21-Dec-17 18:13 39.120417 -108.522420 303 4863ft 0kts
21-Dec-17 18:14 39.120417 -108.522420 303 4863ft 0kts
21-Dec-17 18:15 39.120417 -108.522420 303 4863ft 0kts
21-Dec-17 18:16 39.120417 -108.522420 303 4863ft 0kts
21-Dec-17 18:17 39.120417 -108.522420 303 4863ft 0kts
21-Dec-17 18:18 39.120417 -108.522420 303 4863ft 0kts
21-Dec-17 18:19 39.120417 -108.522420 303 4863ft 0kts
21-Dec-17 18:20 39.120417 -108.522420 303 4863ft 0kts
21-Dec-17 18:21 39.120417 -108.522420 303 4863ft 0kts
21-Dec-17 18:22 39.120417 -108.522420 303 4863ft 0kts
21-Dec-17 18:23 39.120417 -108.522420 303 4863ft 0kts
21-Dec-17 18:24 39.120417 -108.522420 303 4863ft 0kts
21-Dec-17 18:25 39.120417 -108.522420 303 4863ft 0kts
21-Dec-17 18:26 39.120480 -108.522541 303 4863ft 6kts
21-Dec-17 18:27 39.121544 -108.523416 333 4863ft 11kts
21-Dec-17 18:28 39.123880 -108.526581 305 4863ft 15kts
21-Dec-17 18:29 39.127875 -108.533775 304 4864ft 31kts
21-Dec-17 18:30 39.132565 -108.542359 306 4864ft 26kts
21-Dec-17 18:31 39.134042 -108.544786 356 4863ft 0kts
21-Dec-17 18:32 39.134042 -108.544786 356 4863ft 0kts
21-Dec-17 18:33 39.134757 -108.543935 114 4863ft 10kts
21-Dec-17 18:34 39.118705 -108.515502 123 5158ft 215kts
21-Dec-17 18:35 39.079212 -108.478161 159 8140ft 267kts
21-Dec-17 18:36 39.037516 -108.459671 159 11013ft 276kts
21-Dec-17 18:37 39.001296 -108.443627 159 12917ft 296kts
21-Dec-17 18:38 38.970799 -108.417083 118 14433ft 314kts
21-Dec-17 18:39 38.973916 -108.347351 61 16151ft 341kts
21-Dec-17 18:40 39.002415 -108.273289 60 18697ft 353kts
21-Dec-17 18:41 39.025219 -108.214177 60 20416ft 365kts
21-Dec-17 18:42 39.052292 -108.144031 60 22219ft 378kts
21-Dec-17 18:43 39.084188 -108.061324 60 23004ft 413kts
21-Dec-17 18:44 39.105761 -108.005215 60 22990ft 424kts
21-Dec-17 18:45 39.136972 -107.923820 60 22990ft 424kts
21-Dec-17 18:46 39.177864 -107.816911 60 23012ft 423kts
21-Dec-17 18:47 39.206724 -107.741183 60 22918ft 406kts
21-Dec-17 18:48 39.236597 -107.662587 60 22314ft 367kts
21-Dec-17 18:49 39.264157 -107.589898 59 21976ft 325kts
21-Dec-17 18:50 39.288231 -107.526270 59 21921ft 287kts
21-Dec-17 18:51 39.306572 -107.477811 59 21291ft 278kts
21-Dec-17 18:52 39.324374 -107.430720 59 20503ft 273kts
21-Dec-17 18:53 39.340931 -107.386810 59 19777ft 268kts
21-Dec-17 18:54 39.356926 -107.344437 60 19050ft 264kts
21-Dec-17 18:55 39.379689 -107.306513 39 18233ft 253kts
21-Dec-17 18:56 39.399750 -107.282423 39 17631ft 250kts
21-Dec-17 18:57 39.424740 -107.252743 39 16873ft 246kts
21-Dec-17 18:58 39.441504 -107.213036 79 16015ft 251kts
21-Dec-17 18:59 39.445592 -107.171343 79 15440ft 240kts
21-Dec-17 19:00 39.449805 -107.130825 72 14860ft 231kts
21-Dec-17 19:01 39.454903 -107.093428 78 14262ft 222kts
21-Dec-17 19:02 39.458340 -107.059704 79 13972ft 205kts
21-Dec-17 19:03 39.461146 -107.029403 78 13965ft 180kts
21-Dec-17 19:04 39.462846 -106.999993 99 13986ft 165kts
21-Dec-17 19:05 39.449162 -106.976761 128 13991ft 173kts
21-Dec-17 19:06 39.430662 -106.965514 159 13969ft 184kts
21-Dec-17 19:07 39.410782 -106.957017 158 13643ft 179kts
21-Dec-17 19:08 39.394118 -106.949618 158 13167ft 179kts
21-Dec-17 19:09 39.377934 -106.942255 157 12763ft 170kts
21-Dec-17 19:10 39.363464 -106.935575 157 12336ft 160kts
21-Dec-17 19:11 39.349743 -106.929139 157 11804ft 159kts
21-Dec-17 19:12 39.333180 -106.921306 157 11170ft 158kts
21-Dec-17 19:13 39.305035 -106.907918 157 10089ft 155kts
21-Dec-17 19:14 39.266100 -106.889349 158 8469ft 152kts
21-Dec-17 19:15 39.229342 -106.871902 161 7844ft 144kts
21-Dec-17 19:16 39.214440 -106.865442 312 7844ft 16kts
21-Dec-17 19:17 39.215532 -106.864091 345 7843ft 10kts
21-Dec-17 19:18 39.218747 -106.865129 304 7843ft 0kts
21-Dec-17 19:19 39.218747 -106.865128 304 7843ft 0kts

Navigation Log

Ident Type
Flight plan parsing failed, navigation log unavailable